Time;durP1;ratioP1;P1;durP2;ratioP2;P2;SDS_P1;SDS_P2;PMS_P1;PMS_P2;Temp;Humidity;BMP_temperature;BMP_pressure;BME280_temperature;BME280_humidity;BME280_pressure;Samples;Min_cycle;Max_cycle;Signal;HPM_P1;HPM_P2
2023/12/28 00:01:02;;;;;;;7.00;5.13;;;4.70;99.90;;;;;;5014121;28;20470;-55
2023/12/28 00:03:30;;;;;;;9.10;4.80;;;4.70;99.90;;;;;;5014885;28;20451;-55
2023/12/28 00:05:56;;;;;;;4.63;3.97;;;4.70;99.90;;;;;;5014396;28;20491;-55
2023/12/28 00:08:23;;;;;;;10.40;5.10;;;4.70;99.90;;;;;;5014559;28;20459;-55
2023/12/28 00:10:49;;;;;;;6.07;3.90;;;4.70;99.90;;;;;;5014174;28;20517;-55
2023/12/28 00:13:16;;;;;;;4.20;3.80;;;4.70;99.90;;;;;;5013904;28;20941;-55
2023/12/28 00:15:42;;;;;;;8.83;4.17;;;4.70;99.90;;;;;;5014317;28;20436;-55
2023/12/28 00:18:09;;;;;;;9.63;4.23;;;4.70;99.90;;;;;;5014281;28;20501;-55
2023/12/28 00:20:37;;;;;;;12.37;4.20;;;4.80;99.90;;;;;;5014142;28;20494;-55
2023/12/28 00:23:05;;;;;;;10.60;4.53;;;4.80;99.90;;;;;;5014296;28;20447;-55
2023/12/28 00:25:31;;;;;;;4.73;3.53;;;4.80;99.90;;;;;;5014222;28;20509;-54
2023/12/28 00:27:58;;;;;;;7.00;4.03;;;4.90;99.90;;;;;;5013745;28;20444;-54
2023/12/28 00:30:25;;;;;;;8.17;3.70;;;4.90;99.90;;;;;;5013900;28;20937;-53
2023/12/28 00:32:51;;;;;;;7.23;3.87;;;4.90;99.90;;;;;;5003033;28;20451;-55
2023/12/28 00:35:18;;;;;;;6.40;3.87;;;4.90;99.90;;;;;;5014138;28;20502;-55
2023/12/28 00:37:46;;;;;;;12.50;4.50;;;5.00;99.90;;;;;;5013733;28;20449;-54
2023/12/28 00:40:12;;;;;;;6.50;4.03;;;5.00;99.90;;;;;;5014037;28;20522;-54
2023/12/28 00:42:40;;;;;;;13.30;4.70;;;5.10;99.90;;;;;;5014127;28;20451;-56
2023/12/28 00:45:08;;;;;;;6.03;4.60;;;5.00;99.90;;;;;;5013007;28;21001;-54
2023/12/28 00:47:34;;;;;;;5.43;3.47;;;5.00;99.90;;;;;;5013389;28;20535;-54
2023/12/28 00:50:01;;;;;;;4.20;3.17;;;5.10;99.90;;;;;;5013689;28;20444;-54
2023/12/28 00:52:27;;;;;;;8.40;3.73;;;5.10;99.90;;;;;;5013495;28;20440;-54
2023/12/28 00:54:55;;;;;;;7.33;3.60;;;5.10;99.90;;;;;;5012885;28;20444;-54
2023/12/28 00:57:22;;;;;;;5.50;3.80;;;5.10;99.90;;;;;;5013725;28;20909;-55
2023/12/28 00:59:48;;;;;;;8.33;3.70;;;5.20;99.90;;;;;;5013601;28;20506;-55
2023/12/28 01:02:15;;;;;;;6.33;3.83;;;5.30;99.90;;;;;;5013275;28;20459;-55
2023/12/28 01:04:41;;;;;;;8.53;3.77;;;5.20;99.90;;;;;;5013486;28;20483;-55
2023/12/28 01:07:08;;;;;;;6.10;2.87;;;5.30;99.90;;;;;;5013115;28;20456;-54
2023/12/28 01:09:35;;;;;;;5.63;3.57;;;5.30;99.90;;;;;;5013094;28;20455;-55
2023/12/28 01:12:03;;;;;;;5.53;3.30;;;5.20;99.90;;;;;;5013596;28;20471;-55
2023/12/28 01:14:29;;;;;;;3.90;3.20;;;5.30;99.90;;;;;;5001143;28;20941;-54
2023/12/28 01:16:56;;;;;;;3.27;2.97;;;5.30;1.40;;;;;;5012580;28;20498;-55
2023/12/28 01:19:23;;;;;;;4.87;3.47;;;5.30;99.90;;;;;;5012800;28;20502;-54
2023/12/28 01:21:49;;;;;;;4.40;2.87;;;5.20;99.90;;;;;;5010294;28;20467;-55
2023/12/28 01:24:16;;;;;;;6.00;3.07;;;5.40;99.90;;;;;;5013258;28;20443;-55
2023/12/28 01:26:43;;;;;;;4.63;3.77;;;5.40;99.90;;;;;;5012444;28;20451;-55
2023/12/28 01:29:11;;;;;;;4.23;3.13;;;5.50;99.90;;;;;;5013106;28;20448;-55
2023/12/28 01:31:38;;;;;;;4.37;3.10;;;5.50;99.90;;;;;;5012769;28;20494;-60
2023/12/28 01:34:05;;;;;;;12.70;3.33;;;5.50;99.90;;;;;;5012959;28;20543;-59
2023/12/28 01:36:32;;;;;;;5.10;3.20;;;5.60;99.90;;;;;;5012149;28;20902;-60
2023/12/28 01:38:58;;;;;;;8.77;3.90;;;5.60;99.90;;;;;;5012124;28;20455;-61
2023/12/28 01:41:25;;;;;;;4.43;3.07;;;5.60;99.90;;;;;;5013045;28;20518;-60
2023/12/28 01:43:51;;;;;;;4.90;3.30;;;5.70;99.90;;;;;;5013325;28;20873;-60
2023/12/28 01:46:21;;;;;;;6.87;2.93;;;5.70;99.90;;;;;;5012523;28;20491;-60
2023/12/28 01:48:50;;;;;;;4.13;2.93;;;5.70;99.90;;;;;;5011823;28;20992;-60
2023/12/28 01:51:17;;;;;;;5.10;3.03;;;5.70;99.90;;;;;;5012712;28;20515;-61
2023/12/28 01:53:44;;;;;;;4.70;2.70;;;5.70;99.90;;;;;;5012545;28;20444;-61
2023/12/28 01:56:11;;;;;;;4.00;3.00;;;5.70;99.90;;;;;;5012549;28;20443;-60
2023/12/28 01:58:40;;;;;;;2.80;2.50;;;5.70;99.90;;;;;;5012598;28;20474;-60
2023/12/28 02:01:07;;;;;;;3.33;2.50;;;5.70;99.90;;;;;;5011752;28;20491;-61
2023/12/28 02:03:35;;;;;;;2.20;2.10;;;5.70;99.90;;;;;;5012461;28;20456;-61
2023/12/28 02:06:02;;;;;;;4.67;2.67;;;5.80;99.90;;;;;;5011163;28;20492;-60
2023/12/28 02:08:28;;;;;;;2.50;2.30;;;5.90;99.90;;;;;;5012494;28;20505;-60
2023/12/28 02:10:55;;;;;;;4.87;2.83;;;5.90;99.90;;;;;;5012377;28;20468;-60
2023/12/28 02:13:23;;;;;;;2.60;2.43;;;5.90;99.90;;;;;;5012631;28;20444;-60
2023/12/28 02:15:55;;;;;;;3.57;2.90;;;6.00;99.90;;;;;;5012139;28;20444;-61
2023/12/28 02:18:27;;;;;;;2.53;2.33;;;6.00;99.90;;;;;;5011535;28;20476;-60
2023/12/28 02:20:56;;;;;;;4.93;2.77;;;6.00;99.90;;;;;;5012317;28;20530;-61
2023/12/28 02:23:22;;;;;;;6.47;2.50;;;6.00;99.90;;;;;;5012320;28;20503;-61
2023/12/28 02:25:50;;;;;;;2.77;2.23;;;6.10;99.90;;;;;;5012188;28;20483;-60
2023/12/28 02:28:17;;;;;;;5.43;2.63;;;6.10;99.90;;;;;;5011636;28;20509;-59
2023/12/28 02:30:44;;;;;;;5.67;2.50;;;6.10;99.90;;;;;;5012087;28;20885;-60
2023/12/28 02:33:20;;;;;;;3.67;2.80;;;6.10;99.90;;;;;;5012380;28;20506;-60
2023/12/28 02:35:52;;;;;;;4.13;2.73;;;6.20;99.90;;;;;;5012192;28;20505;-59
2023/12/28 02:38:20;;;;;;;4.17;2.77;;;6.20;99.90;;;;;;5012071;28;20451;-59
2023/12/28 02:40:48;;;;;;;2.57;2.37;;;6.20;99.90;;;;;;5011880;28;20467;-60
2023/12/28 02:43:16;;;;;;;3.53;2.63;;;6.30;99.90;;;;;;5012174;28;20452;-61
2023/12/28 02:45:42;;;;;;;2.37;2.17;;;6.40;99.90;;;;;;5011328;28;20542;-59
2023/12/28 02:48:09;;;;;;;3.53;2.30;;;6.40;99.90;;;;;;5011494;28;20448;-60
2023/12/28 02:50:36;;;;;;;2.47;2.27;;;6.50;99.90;;;;;;5010127;28;20476;-61
2023/12/28 02:53:04;;;;;;;6.80;2.30;;;6.60;79.80;;;;;;5011956;28;20448;-60
2023/12/28 02:55:31;;;;;;;2.47;2.10;;;6.60;80.70;;;;;;5010188;28;21000;-59
2023/12/28 02:57:59;;;;;;;3.03;1.90;;;6.70;27.70;;;;;;5011768;28;20566;-60
2023/12/28 03:00:28;;;;;;;3.07;2.20;;;6.80;29.00;;;;;;5007922;28;20472;-60
2023/12/28 03:02:54;;;;;;;4.37;2.67;;;6.90;40.00;;;;;;5011653;28;20444;-61
2023/12/28 03:05:21;;;;;;;1.60;1.50;;;6.90;41.20;;;;;;5011752;28;20518;-61
2023/12/28 03:07:47;;;;;;;2.07;1.97;;;7.00;47.00;;;;;;5011505;28;20502;-60
2023/12/28 03:10:14;;;;;;;2.50;1.93;;;7.10;47.90;;;;;;5011102;28;21031;-59
2023/12/28 03:12:41;;;;;;;2.13;1.90;;;7.10;44.50;;;;;;5011826;28;20815;-59
2023/12/28 03:15:08;;;;;;;3.40;2.07;;;7.10;42.30;;;;;;5011516;28;20750;-60
2023/12/28 03:17:36;;;;;;;1.90;1.80;;;7.10;33.80;;;;;;5012179;28;20452;-60
2023/12/28 03:20:03;;;;;;;3.23;1.60;;;7.10;37.20;;;;;;5015320;28;20471;-61
2023/12/28 03:22:30;;;;;;;2.10;1.90;;;7.10;33.10;;;;;;5015179;28;20938;-60
2023/12/28 03:24:56;;;;;;;1.60;1.50;;;7.10;37.60;;;;;;5015449;28;20921;-60
2023/12/28 03:27:23;;;;;;;3.03;1.97;;;7.10;36.20;;;;;;5015360;28;20451;-59
2023/12/28 03:29:49;;;;;;;2.30;2.10;;;7.20;42.70;;;;;;5015125;28;20447;-60
2023/12/28 03:32:16;;;;;;;2.07;1.87;;;7.40;44.40;;;;;;5014686;28;20448;-61
2023/12/28 03:34:44;;;;;;;5.53;2.00;;;7.50;58.30;;;;;;5015338;28;20456;-60
2023/12/28 03:37:11;;;;;;;1.60;1.50;;;7.50;55.80;;;;;;5014801;28;20490;-60
2023/12/28 03:39:38;;;;;;;5.20;1.50;;;7.70;46.20;;;;;;5015388;28;20477;-60
2023/12/28 03:42:05;;;;;;;5.17;1.80;;;7.50;21.90;;;;;;5015112;28;20502;-61
2023/12/28 03:44:31;;;;;;;2.70;1.60;;;7.40;31.00;;;;;;5014928;28;20452;-60
2023/12/28 03:46:58;;;;;;;2.10;1.57;;;7.30;87.30;;;;;;5014557;28;20545;-60
2023/12/28 03:49:24;;;;;;;3.10;1.60;;;7.30;99.90;;;;;;5015161;28;20447;-60
2023/12/28 03:51:53;;;;;;;2.30;2.10;;;7.30;99.90;;;;;;5014937;28;20463;-60
2023/12/28 03:54:20;;;;;;;3.20;2.13;;;7.20;99.90;;;;;;5014714;28;20448;-60
2023/12/28 03:56:47;;;;;;;3.40;2.10;;;7.10;99.90;;;;;;5014809;28;20837;-59
2023/12/28 03:59:15;;;;;;;1.40;1.30;;;7.20;99.90;;;;;;5002018;28;20443;-60
2023/12/28 04:01:42;;;;;;;1.77;1.63;;;7.30;99.90;;;;;;5014204;28;20471;-60
2023/12/28 04:04:09;;;;;;;1.80;1.70;;;7.40;22.80;;;;;;5014792;28;20444;-60
2023/12/28 04:06:36;;;;;;;1.27;1.17;;;7.40;90.50;;;;;;5014539;28;20519;-59
2023/12/28 04:09:04;;;;;;;2.00;1.70;;;7.40;99.90;;;;;;5014533;28;20448;-60
2023/12/28 04:11:30;;;;;;;2.67;2.03;;;7.40;22.10;;;;;;5014486;28;20467;-60
2023/12/28 04:13:57;;;;;;;1.63;1.40;;;7.60;30.30;;;;;;5014281;28;20455;-60
2023/12/28 04:16:23;;;;;;;2.53;1.37;;;7.70;35.30;;;;;;5014212;28;20490;-61
2023/12/28 04:18:50;;;;;;;1.83;1.50;;;7.70;34.00;;;;;;5014582;28;20510;-60
2023/12/28 04:21:16;;;;;;;2.40;1.87;;;7.70;33.70;;;;;;5014255;28;20468;-61
2023/12/28 04:23:43;;;;;;;3.17;1.80;;;7.80;43.30;;;;;;5014325;28;20498;-60
2023/12/28 04:26:11;;;;;;;3.07;1.80;;;7.80;41.50;;;;;;5013872;28;21063;-59
2023/12/28 04:28:37;;;;;;;2.53;1.93;;;7.80;43.80;;;;;;5013479;28;20476;-59
2023/12/28 04:31:05;;;;;;;2.37;2.17;;;7.90;49.70;;;;;;5013446;28;20891;-60
2023/12/28 04:33:32;;;;;;;1.90;1.80;;;7.80;43.40;;;;;;5014344;28;20450;-59
2023/12/28 04:36:03;;;;;;;1.93;1.60;;;7.90;42.80;;;;;;5014094;28;20447;-59
2023/12/28 04:38:29;;;;;;;2.00;1.90;;;7.90;46.80;;;;;;5014192;28;20448;-60
2023/12/28 04:40:56;;;;;;;6.40;2.07;;;7.90;48.80;;;;;;5013877;28;20521;-60
2023/12/28 04:43:24;;;;;;;4.23;1.77;;;7.90;45.10;;;;;;5013331;28;20487;-60
2023/12/28 04:45:51;;;;;;;1.60;1.50;;;7.90;46.50;;;;;;5014087;28;20484;-59
2023/12/28 04:48:20;;;;;;;2.50;2.30;;;8.10;51.40;;;;;;5013726;28;20478;-60
2023/12/28 04:50:47;;;;;;;1.80;1.70;;;8.10;51.80;;;;;;5013838;28;20482;-60
2023/12/28 04:53:14;;;;;;;1.57;1.47;;;8.10;47.90;;;;;;5013750;28;20961;-59
2023/12/28 04:55:40;;;;;;;1.77;1.60;;;8.00;47.70;;;;;;5013520;28;20795;-59
2023/12/28 04:58:07;;;;;;;1.77;1.53;;;8.00;46.60;;;;;;5013347;28;20444;-60
2023/12/28 05:00:35;;;;;;;2.00;1.87;;;8.10;48.60;;;;;;5023848;22;21027;-57
2023/12/28 05:03:01;;;;;;;1.70;1.60;;;8.10;48.10;;;;;;4994164;28;20814;-58
2023/12/28 05:05:28;;;;;;;2.33;1.63;;;8.00;48.40;;;;;;4994019;28;20452;-57
2023/12/28 05:07:54;;;;;;;1.60;1.50;;;8.00;50.70;;;;;;4994283;28;20499;-56
2023/12/28 05:10:21;;;;;;;2.03;1.50;;;8.10;48.20;;;;;;4993734;28;20520;-57
2023/12/28 05:12:48;;;;;;;1.60;1.50;;;8.00;45.10;;;;;;4993916;28;20451;-57
2023/12/28 05:15:15;;;;;;;4.03;1.83;;;8.00;45.20;;;;;;4993975;28;20497;-57
2023/12/28 05:17:43;;;;;;;1.63;1.50;;;8.20;52.60;;;;;;4993603;28;20544;-56
2023/12/28 05:20:10;;;;;;;2.10;1.90;;;8.20;51.50;;;;;;4993459;28;20479;-56
2023/12/28 05:22:37;;;;;;;1.50;1.40;;;8.20;52.40;;;;;;4993509;28;20452;-56
2023/12/28 05:25:04;;;;;;;2.30;1.47;;;8.20;49.60;;;;;;4993837;28;20502;-56
2023/12/28 05:27:31;;;;;;;1.60;1.50;;;8.20;51.20;;;;;;4992818;28;21079;-56
2023/12/28 05:29:57;;;;;;;1.50;1.37;;;8.20;47.40;;;;;;4993426;28;21021;-56
2023/12/28 05:32:24;;;;;;;1.73;1.60;;;8.10;48.20;;;;;;4993695;28;20856;-57
2023/12/28 05:34:52;;;;;;;1.50;1.40;;;8.20;51.50;;;;;;4992970;28;20452;-57
2023/12/28 05:37:18;;;;;;;3.70;1.60;;;8.30;51.10;;;;;;4993370;28;20816;-55
2023/12/28 05:39:45;;;;;;;2.67;1.57;;;8.30;52.60;;;;;;4993426;28;20458;-56
2023/12/28 05:42:11;;;;;;;1.77;1.67;;;8.30;53.50;;;;;;4992800;28;20495;-56
2023/12/28 05:44:38;;;;;;;1.73;1.33;;;8.20;50.00;;;;;;4993432;28;20475;-56
2023/12/28 05:47:05;;;;;;;2.23;2.00;;;8.20;49.50;;;;;;4993128;28;20484;-56
2023/12/28 05:49:31;;;;;;;1.90;1.70;;;8.20;48.20;;;;;;4992822;28;20453;-57
2023/12/28 05:51:59;;;;;;;2.50;1.40;;;8.20;47.40;;;;;;4993184;28;20476;-57
2023/12/28 05:54:26;;;;;;;2.90;1.60;;;8.20;48.20;;;;;;4993188;28;20445;-57
2023/12/28 05:56:53;;;;;;;1.40;1.30;;;8.10;47.00;;;;;;4992738;28;20447;-56
2023/12/28 05:59:21;;;;;;;2.40;1.77;;;8.10;43.10;;;;;;4993028;28;20475;-57
2023/12/28 06:01:48;;;;;;;1.60;1.50;;;8.10;44.50;;;;;;4992874;28;20571;-56
2023/12/28 06:04:14;;;;;;;1.47;1.47;;;8.10;44.40;;;;;;4992844;28;20539;-57
2023/12/28 06:06:41;;;;;;;3.80;1.80;;;8.20;43.20;;;;;;4992423;28;20544;-56
2023/12/28 06:09:09;;;;;;;1.53;1.43;;;8.10;42.20;;;;;;4992578;28;20817;-56
2023/12/28 06:11:36;;;;;;;1.90;1.47;;;8.20;43.00;;;;;;4992319;28;20547;-56
2023/12/28 06:14:02;;;;;;;1.77;1.63;;;8.20;41.50;;;;;;4992428;28;20938;-56
2023/12/28 06:16:32;;;;;;;1.67;1.53;;;8.10;39.30;;;;;;4992596;28;20445;-57
2023/12/28 06:18:59;;;;;;;3.03;1.77;;;8.10;35.80;;;;;;4992896;28;20499;-57
2023/12/28 06:21:25;;;;;;;2.73;1.80;;;8.00;37.40;;;;;;4992000;28;20473;-56
2023/12/28 06:23:52;;;;;;;3.17;1.87;;;8.00;35.40;;;;;;4992622;28;20452;-57
2023/12/28 06:26:20;;;;;;;1.80;1.50;;;8.00;32.70;;;;;;4992273;28;20484;-57
2023/12/28 06:28:46;;;;;;;2.50;1.53;;;8.00;34.20;;;;;;4991960;28;20453;-57
2023/12/28 06:31:13;;;;;;;2.10;1.63;;;8.00;34.10;;;;;;4992268;28;20895;-56
2023/12/28 06:33:40;;;;;;;1.67;1.57;;;8.00;31.90;;;;;;4992686;28;20503;-56
2023/12/28 06:36:07;;;;;;;1.60;1.50;;;8.10;30.30;;;;;;4992072;28;20448;-56
2023/12/28 06:38:33;;;;;;;2.13;1.30;;;8.10;28.50;;;;;;4991337;28;20495;-56
2023/12/28 06:41:00;;;;;;;10.20;1.80;;;8.10;24.30;;;;;;4992438;28;20476;-56
2023/12/28 06:43:28;;;;;;;3.47;1.70;;;8.00;21.60;;;;;;4992027;28;20868;-57
2023/12/28 06:45:55;;;;;;;1.60;1.50;;;8.10;96.30;;;;;;4992077;28;20989;-56
2023/12/28 06:48:21;;;;;;;1.80;1.70;;;8.00;99.90;;;;;;4991478;28;20444;-57
2023/12/28 06:50:48;;;;;;;1.60;1.50;;;8.00;99.90;;;;;;4992283;28;20464;-57
2023/12/28 06:53:14;;;;;;;2.10;1.70;;;8.00;99.90;;;;;;4991971;28;20630;-58
2023/12/28 06:55:41;;;;;;;1.33;1.23;;;8.00;99.90;;;;;;4992184;28;20448;-57
2023/12/28 06:58:07;;;;;;;1.93;1.37;;;7.90;99.90;;;;;;4991683;28;20452;-58
2023/12/28 07:00:35;;;;;;;4.07;2.00;;;7.90;99.90;;;;;;4992177;28;20480;-58
2023/12/28 07:03:02;;;;;;;2.07;1.70;;;8.00;99.90;;;;;;4992349;28;20448;-57
2023/12/28 07:05:28;;;;;;;1.73;1.60;;;8.00;99.90;;;;;;4992112;28;20511;-57
2023/12/28 07:07:55;;;;;;;2.23;1.70;;;7.90;99.90;;;;;;4991594;28;20993;-58
2023/12/28 07:10:21;;;;;;;2.20;1.80;;;7.90;99.90;;;;;;4992003;28;20538;-57
2023/12/28 07:12:48;;;;;;;2.40;1.87;;;7.90;99.90;;;;;;4991464;28;20445;-56
2023/12/28 07:15:15;;;;;;;2.07;1.87;;;7.90;99.90;;;;;;4992154;28;20484;-55
2023/12/28 07:17:43;;;;;;;2.83;2.23;;;7.90;99.90;;;;;;4991972;28;20440;-58
2023/12/28 07:20:11;;;;;;;1.50;1.37;;;7.80;99.90;;;;;;4992084;28;20487;-56
2023/12/28 07:22:37;;;;;;;2.43;1.50;;;7.80;99.90;;;;;;4992108;28;20519;-56
2023/12/28 07:25:05;;;;;;;3.10;2.03;;;7.90;99.90;;;;;;4991921;28;20440;-57
2023/12/28 07:27:32;;;;;;;2.77;1.77;;;7.90;99.90;;;;;;4991190;28;20985;-57
2023/12/28 07:29:58;;;;;;;2.10;1.93;;;7.80;99.90;;;;;;4992110;28;20514;-56
2023/12/28 07:32:26;;;;;;;1.50;1.40;;;7.80;99.90;;;;;;4991933;28;20444;-57
2023/12/28 07:34:54;;;;;;;1.80;1.50;;;7.80;99.90;;;;;;4992083;28;20444;-58
2023/12/28 07:37:21;;;;;;;2.80;1.90;;;7.90;99.90;;;;;;4991674;28;20440;-56
2023/12/28 07:39:47;;;;;;;1.97;1.87;;;7.90;99.90;;;;;;4991568;28;20707;-57
2023/12/28 07:42:15;;;;;;;1.63;1.53;;;7.90;99.90;;;;;;4991239;28;20531;-57
2023/12/28 07:44:41;;;;;;;1.93;1.80;;;7.90;99.90;;;;;;4992033;28;20448;-56
2023/12/28 07:47:08;;;;;;;3.90;1.83;;;7.90;99.90;;;;;;4991562;28;21060;-57
2023/12/28 07:49:34;;;;;;;1.93;1.57;;;7.90;99.90;;;;;;4991627;28;20452;-58
2023/12/28 07:52:02;;;;;;;4.90;1.60;;;7.90;99.90;;;;;;4991919;28;20464;-58
2023/12/28 07:54:29;;;;;;;1.60;1.50;;;7.90;99.90;;;;;;4991095;28;20445;-58
2023/12/28 07:56:55;;;;;;;1.77;1.60;;;7.90;99.90;;;;;;4991439;28;20511;-58
2023/12/28 07:59:22;;;;;;;2.00;1.90;;;7.80;99.90;;;;;;4991801;28;20452;-57
2023/12/28 08:01:49;;;;;;;2.40;1.73;;;7.90;99.90;;;;;;4991529;28;20476;-56
2023/12/28 08:04:15;;;;;;;2.23;1.80;;;7.90;99.90;;;;;;4992051;28;20946;-55
2023/12/28 08:06:42;;;;;;;3.17;1.60;;;8.00;99.90;;;;;;4994785;28;20480;-56
2023/12/28 08:09:10;;;;;;;3.03;2.07;;;8.00;99.90;;;;;;4994774;28;20444;-56
2023/12/28 08:11:36;;;;;;;2.27;1.77;;;8.00;99.90;;;;;;4992192;28;21041;-56
2023/12/28 08:14:03;;;;;;;2.40;1.97;;;8.00;99.90;;;;;;4987015;28;20444;-54
2023/12/28 08:16:30;;;;;;;2.30;1.90;;;8.00;99.90;;;;;;4994838;28;20476;-55
2023/12/28 08:18:56;;;;;;;2.33;2.23;;;8.10;99.90;;;;;;4994716;28;20452;-57
2023/12/28 08:21:23;;;;;;;3.00;1.63;;;8.10;99.90;;;;;;4994301;28;20883;-56
2023/12/28 08:23:49;;;;;;;2.80;2.07;;;8.10;99.90;;;;;;4994319;28;20463;-56
2023/12/28 08:26:17;;;;;;;2.30;2.00;;;8.10;99.90;;;;;;4994013;28;20449;-56
2023/12/28 08:28:44;;;;;;;2.90;2.67;;;8.10;99.90;;;;;;4982465;28;20543;-56
2023/12/28 08:31:10;;;;;;;1.90;1.80;;;8.10;99.90;;;;;;4994595;28;20500;-56
2023/12/28 08:33:38;;;;;;;2.53;2.00;;;8.20;99.90;;;;;;4994381;28;20993;-56
2023/12/28 08:36:06;;;;;;;2.80;2.27;;;8.20;99.90;;;;;;4994067;28;20453;-55
2023/12/28 08:38:32;;;;;;;2.23;2.03;;;8.20;99.90;;;;;;4994328;28;20448;-55
2023/12/28 08:40:59;;;;;;;2.07;1.97;;;8.20;99.90;;;;;;4993777;28;20522;-56
2023/12/28 08:43:27;;;;;;;1.97;1.73;;;8.20;99.90;;;;;;4994441;28;20797;-56
2023/12/28 08:45:54;;;;;;;3.43;2.00;;;8.20;99.90;;;;;;4993717;28;20523;-55
2023/12/28 08:48:21;;;;;;;3.23;1.73;;;8.20;99.90;;;;;;4994232;28;20542;-55
2023/12/28 08:50:49;;;;;;;2.17;1.97;;;8.20;99.90;;;;;;4994262;28;20523;-56
2023/12/28 08:53:16;;;;;;;3.50;1.50;;;8.20;99.90;;;;;;4994209;28;20816;-55
2023/12/28 08:55:43;;;;;;;4.77;2.40;;;8.20;99.90;;;;;;4993630;28;20494;-55
2023/12/28 08:58:09;;;;;;;1.77;1.67;;;8.20;99.90;;;;;;4993398;28;20441;-54
2023/12/28 09:00:37;;;;;;;7.03;2.07;;;8.20;99.90;;;;;;4993439;28;20485;-56
2023/12/28 09:03:04;;;;;;;2.40;2.20;;;8.30;99.90;;;;;;4994054;28;20457;-55
2023/12/28 09:05:31;;;;;;;3.17;2.47;;;8.30;99.90;;;;;;4994362;28;20445;-55
2023/12/28 09:07:58;;;;;;;2.30;2.10;;;8.40;99.90;;;;;;4993597;28;20488;-55
2023/12/28 09:10:25;;;;;;;2.93;2.43;;;8.40;99.90;;;;;;4993931;28;20464;-55
2023/12/28 09:12:51;;;;;;;2.47;2.03;;;8.40;99.90;;;;;;4993316;28;20530;-55
2023/12/28 09:15:18;;;;;;;2.63;2.43;;;8.40;99.90;;;;;;4993114;28;20989;-56
2023/12/28 09:17:46;;;;;;;2.50;2.30;;;8.40;99.90;;;;;;4993613;28;20495;-56
2023/12/28 09:20:13;;;;;;;2.57;2.30;;;8.40;99.90;;;;;;4993505;28;20809;-55
2023/12/28 09:22:40;;;;;;;3.40;2.03;;;8.40;99.90;;;;;;4993549;28;20455;-54
2023/12/28 09:25:07;;;;;;;3.00;2.00;;;8.40;99.90;;;;;;4993141;28;20862;-56
2023/12/28 09:27:33;;;;;;;2.73;2.13;;;8.60;99.90;;;;;;4993464;28;20558;-55
2023/12/28 09:30:00;;;;;;;3.43;2.20;;;8.60;99.90;;;;;;4993263;28;20495;-55
2023/12/28 09:32:27;;;;;;;2.70;2.50;;;8.60;99.90;;;;;;4993313;28;20476;-55
2023/12/28 09:34:54;;;;;;;2.20;2.00;;;8.60;99.90;;;;;;4993218;28;20935;-55
2023/12/28 09:37:21;;;;;;;2.37;2.17;;;8.60;99.90;;;;;;4993073;28;21171;-55
2023/12/28 09:39:48;;;;;;;2.10;2.00;;;8.60;99.90;;;;;;4992996;28;20824;-55
2023/12/28 09:42:19;;;;;;;3.37;1.93;;;8.50;99.90;;;;;;4993127;28;20449;-55
2023/12/28 09:44:46;;;;;;;2.00;1.90;;;8.60;99.90;;;;;;4993399;28;20475;-56
2023/12/28 09:47:14;;;;;;;2.87;2.07;;;8.60;99.90;;;;;;4992708;28;20485;-56
2023/12/28 09:49:42;;;;;;;2.77;2.10;;;8.60;99.90;;;;;;4992773;28;20448;-55
2023/12/28 09:52:10;;;;;;;3.27;2.60;;;8.70;99.90;;;;;;4993384;28;20464;-56
2023/12/28 09:54:37;;;;;;;3.33;2.10;;;8.70;99.90;;;;;;4992924;28;20475;-56
2023/12/28 09:57:04;;;;;;;3.70;2.70;;;8.80;80.10;;;;;;4992738;28;20817;-56
2023/12/28 09:59:32;;;;;;;3.50;2.70;;;9.10;24.80;;;;;;4992888;28;20510;-56
2023/12/28 10:02:01;;;;;;;3.03;2.60;;;9.60;48.70;;;;;;4992924;28;20476;-55
2023/12/28 10:04:29;;;;;;;2.43;2.23;;;10.20;69.70;;;;;;4993053;28;20467;-55
2023/12/28 10:06:56;;;;;;;1.80;1.70;;;10.30;68.30;;;;;;4991949;28;20440;-56
2023/12/28 10:09:24;;;;;;;2.30;2.20;;;9.90;62.90;;;;;;4992891;28;20444;-55
2023/12/28 10:11:51;;;;;;;2.97;2.67;;;10.20;69.30;;;;;;4992198;28;20472;-55
2023/12/28 10:14:18;;;;;;;8.23;2.17;;;10.70;81.00;;;;;;4992603;28;20802;-55
2023/12/28 10:16:44;;;;;;;2.20;2.00;;;10.50;81.00;;;;;;4992338;28;20479;-55
2023/12/28 10:19:11;;;;;;;2.60;2.40;;;10.90;86.50;;;;;;4992194;28;20444;-58
2023/12/28 10:21:40;;;;;;;2.10;1.97;;;10.80;95.80;;;;;;4989271;28;20981;-56
2023/12/28 10:24:07;;;;;;;2.23;2.03;;;10.90;90.90;;;;;;4992396;28;20449;-55
2023/12/28 10:26:36;;;;;;;2.23;1.93;;;11.20;96.90;;;;;;4991630;28;20511;-56
2023/12/28 10:29:03;;;;;;;4.20;2.50;;;10.70;87.40;;;;;;4986221;28;20983;-56
2023/12/28 10:31:29;;;;;;;2.20;2.00;;;10.20;71.40;;;;;;4991948;28;20476;-55
2023/12/28 10:33:59;;;;;;;1.87;1.77;;;10.00;62.00;;;;;;4992795;28;20507;-55
2023/12/28 10:36:27;;;;;;;3.00;2.30;;;10.00;62.00;;;;;;4992203;28;20969;-55
2023/12/28 10:38:54;;;;;;;4.07;2.50;;;10.10;60.40;;;;;;4991942;28;20507;-55
2023/12/28 10:41:22;;;;;;;2.70;1.90;;;10.20;65.20;;;;;;4991287;28;20514;-56
2023/12/28 10:44:03;;;;;;;2.53;2.30;;;10.60;82.20;;;;;;4992491;28;20444;-54
2023/12/28 10:46:32;;;;;;;2.60;2.10;;;10.50;78.30;;;;;;4983209;28;20456;-55
2023/12/28 10:49:05;;;;;;;2.23;2.03;;;10.70;85.10;;;;;;4991948;28;20558;-56
2023/12/28 10:51:36;;;;;;;3.30;2.33;;;10.60;81.10;;;;;;4992094;28;20472;-56
2023/12/28 10:54:12;;;;;;;5.23;1.80;;;11.00;92.20;;;;;;4992258;28;20460;-55
2023/12/28 10:56:45;;;;;;;2.43;2.00;;;11.00;91.80;;;;;;4989112;28;20506;-56
2023/12/28 10:59:20;;;;;;;2.10;1.87;;;11.20;94.70;;;;;;4992103;28;20511;-57
2023/12/28 11:01:50;;;;;;;4.77;2.00;;;12.00;99.90;;;;;;5021093;23;20502;-54
2023/12/28 11:04:24;;;;;;;3.80;2.00;;;11.80;99.90;;;;;;5031907;28;20493;-58
2023/12/28 11:06:52;;;;;;;2.07;1.87;;;11.00;93.90;;;;;;5032421;28;20485;-57
2023/12/28 11:09:20;;;;;;;2.50;1.83;;;10.70;84.40;;;;;;5031838;28;20649;-57
2023/12/28 11:11:47;;;;;;;2.13;2.03;;;10.70;77.40;;;;;;5030893;28;20515;-55
2023/12/28 11:14:18;;;;;;;2.77;1.93;;;10.90;86.90;;;;;;5031182;28;20936;-54
2023/12/28 11:16:45;;;;;;;2.70;2.40;;;10.90;91.90;;;;;;5030923;28;20442;-56
2023/12/28 11:19:12;;;;;;;2.10;2.00;;;10.70;83.90;;;;;;5031359;28;20492;-57
2023/12/28 11:21:39;;;;;;;4.37;2.10;;;10.50;76.90;;;;;;5026436;28;20471;-56
2023/12/28 11:24:07;;;;;;;4.43;1.83;;;10.40;73.20;;;;;;5031341;28;20455;-56
2023/12/28 11:26:34;;;;;;;2.37;1.80;;;10.40;69.40;;;;;;5030533;28;20442;-56
2023/12/28 11:29:03;;;;;;;3.57;2.30;;;10.40;68.40;;;;;;5029775;28;20478;-56
2023/12/28 11:31:35;;;;;;;1.90;1.80;;;10.40;71.20;;;;;;5030230;28;20984;-56
2023/12/28 11:34:04;;;;;;;4.70;2.63;;;10.40;69.20;;;;;;5030565;28;20439;-55
2023/12/28 11:36:36;;;;;;;2.20;2.00;;;10.40;64.60;;;;;;5030494;28;20497;-57
2023/12/28 11:39:05;;;;;;;2.90;2.70;;;10.40;62.50;;;;;;5032784;28;20447;-62
2023/12/28 11:41:33;;;;;;;5.60;2.30;;;10.40;67.60;;;;;;5034049;28;20513;-61
2023/12/28 11:44:03;;;;;;;2.20;2.07;;;10.50;73.40;;;;;;5034556;28;20940;-61
2023/12/28 11:46:30;;;;;;;2.53;1.93;;;10.50;73.20;;;;;;5034732;28;20461;-61
2023/12/28 11:49:05;;;;;;;3.17;1.83;;;10.40;71.40;;;;;;5034405;28;20486;-62
2023/12/28 11:51:32;;;;;;;2.27;2.00;;;10.50;68.20;;;;;;5034107;28;20831;-61
2023/12/28 11:54:00;;;;;;;3.87;1.97;;;10.40;74.30;;;;;;5029546;28;20504;-61
2023/12/28 11:56:26;;;;;;;3.03;2.40;;;10.50;72.10;;;;;;5033736;28;21122;-61
2023/12/28 11:58:53;;;;;;;15.30;3.30;;;10.50;71.60;;;;;;5034272;28;20443;-57
2023/12/28 12:01:20;;;;;;;3.97;2.73;;;10.50;74.50;;;;;;5034496;28;20532;-57
2023/12/28 12:03:46;;;;;;;3.20;2.27;;;10.60;76.20;;;;;;5034561;28;20450;-56
2023/12/28 12:06:14;;;;;;;2.73;1.97;;;10.60;78.20;;;;;;5033769;28;20617;-56
2023/12/28 12:08:41;;;;;;;3.60;2.43;;;10.60;77.40;;;;;;5034102;28;21057;-56
2023/12/28 12:11:08;;;;;;;3.47;2.13;;;10.60;79.40;;;;;;5033912;28;20462;-58
2023/12/28 12:13:35;;;;;;;3.43;1.97;;;11.40;96.10;;;;;;5033860;28;20953;-58
2023/12/28 12:16:05;;;;;;;3.27;2.30;;;11.80;99.90;;;;;;5034157;28;20459;-57
2023/12/28 12:18:32;;;;;;;5.07;2.03;;;11.60;99.90;;;;;;5034235;28;20446;-58
2023/12/28 12:20:58;;;;;;;1.90;1.80;;;11.70;99.90;;;;;;5032779;28;20458;-57
2023/12/28 12:23:26;;;;;;;3.20;2.00;;;11.90;99.90;;;;;;5033850;28;20592;-57
2023/12/28 12:25:53;;;;;;;3.17;2.10;;;11.80;99.90;;;;;;5033714;28;20770;-57
2023/12/28 12:28:20;;;;;;;2.53;2.10;;;11.90;99.90;;;;;;5033803;28;20548;-57
2023/12/28 12:30:52;;;;;;;5.53;2.30;;;12.10;99.90;;;;;;5034007;28;20471;-57
2023/12/28 12:33:18;;;;;;;5.30;2.70;;;12.40;99.90;;;;;;5033938;28;20497;-57
2023/12/28 12:35:45;;;;;;;2.13;1.90;;;12.20;99.90;;;;;;5033589;28;20447;-56
2023/12/28 12:38:12;;;;;;;2.80;2.00;;;12.10;99.90;;;;;;5033422;28;20447;-57
2023/12/28 12:40:40;;;;;;;3.63;2.00;;;11.90;99.90;;;;;;5032935;28;20470;-57
2023/12/28 12:43:08;;;;;;;2.10;2.00;;;11.90;99.90;;;;;;5033704;28;20546;-58
2023/12/28 12:45:36;;;;;;;4.03;2.60;;;11.90;99.90;;;;;;5051914;28;20462;-59
2023/12/28 12:48:04;;;;;;;2.50;2.30;;;11.80;99.90;;;;;;5032162;28;20462;-61
2023/12/28 12:50:31;;;;;;;3.80;2.50;;;11.40;99.90;;;;;;5020685;28;20442;-62
2023/12/28 12:53:00;;;;;;;1.80;1.70;;;11.40;99.90;;;;;;5033225;28;20496;-62
2023/12/28 12:55:26;;;;;;;3.40;2.20;;;11.70;99.90;;;;;;5033290;28;20442;-61